createdAt,value
2018-06-30T00:03:38.759Z,73.80
2018-06-30T00:08:42.213Z,73.60
2018-06-30T00:13:45.247Z,73.20
2018-06-30T00:18:48.295Z,73.00
2018-06-30T00:23:51.352Z,72.20
2018-06-30T00:28:54.454Z,71.70
2018-06-30T00:33:57.490Z,71.10
2018-06-30T00:39:00.529Z,70.70
2018-06-30T00:44:03.993Z,70.30
2018-06-30T00:49:07.042Z,70.10
2018-06-30T00:54:10.367Z,70.70
2018-06-30T00:59:13.450Z,69.50
2018-06-30T01:04:16.495Z,69.40
2018-06-30T01:09:19.545Z,69.30
2018-06-30T01:14:22.636Z,69.20
2018-06-30T01:19:25.677Z,69.10
2018-06-30T01:24:28.760Z,69.00
2018-06-30T01:29:31.791Z,69.00
2018-06-30T01:34:34.960Z,68.80
2018-06-30T01:39:38.029Z,68.60
2018-06-30T01:44:41.078Z,68.40
2018-06-30T01:49:44.149Z,68.20
2018-06-30T01:54:47.502Z,68.00
2018-06-30T01:59:50.758Z,67.80
2018-06-30T02:04:53.911Z,67.70
2018-06-30T02:09:56.952Z,67.40
2018-06-30T02:15:00.065Z,67.30
2018-06-30T02:20:03.155Z,67.20
2018-06-30T02:25:06.312Z,67.20
2018-06-30T02:30:09.374Z,67.10
2018-06-30T02:35:12.443Z,67.20
2018-06-30T02:40:52.445Z,67.00
2018-06-30T02:45:55.831Z,67.00
2018-06-30T02:50:58.865Z,67.00
2018-06-30T02:56:01.908Z,67.70
2018-06-30T03:01:04.976Z,68.30
2018-06-30T03:06:32.981Z,68.70
2018-06-30T03:11:40.321Z,68.70
2018-06-30T03:16:54.476Z,69.20
2018-06-30T03:21:57.685Z,69.40
2018-06-30T03:27:00.724Z,69.50
2018-06-30T03:32:03.758Z,69.70
2018-06-30T03:37:11.824Z,69.60
2018-06-30T03:42:16.554Z,69.40
2018-06-30T03:47:19.569Z,69.50
2018-06-30T03:52:27.335Z,69.40
2018-06-30T03:57:30.464Z,69.20
2018-06-30T04:02:33.504Z,69.40
2018-06-30T04:07:37.433Z,69.70
2018-06-30T04:12:40.453Z,70.20
2018-06-30T04:17:43.509Z,70.30
2018-06-30T04:22:46.560Z,70.00
2018-06-30T04:27:49.677Z,69.30
2018-06-30T04:32:52.738Z,68.60
2018-06-30T04:37:55.776Z,69.00
2018-06-30T04:42:59.865Z,67.10
2018-06-30T04:48:03.475Z,66.90
2018-06-30T04:53:06.804Z,66.30
2018-06-30T04:58:09.891Z,65.50
2018-06-30T05:03:12.932Z,63.50
2018-06-30T05:08:15.996Z,63.00
2018-06-30T05:13:19.424Z,62.20
2018-06-30T05:18:38.714Z,60.50
2018-06-30T05:23:41.756Z,59.10
2018-06-30T05:28:45.427Z,59.40
2018-06-30T05:33:48.473Z,58.40
2018-06-30T05:38:51.934Z,58.00
2018-06-30T05:43:54.989Z,57.50
2018-06-30T05:48:58.045Z,57.10
2018-06-30T05:54:01.094Z,56.30
2018-06-30T05:59:04.165Z,55.70
2018-06-30T06:04:07.192Z,55.10
2018-06-30T06:09:11.429Z,55.00
2018-06-30T06:14:15.026Z,54.70
2018-06-30T06:19:18.942Z,54.80
2018-06-30T06:24:21.997Z,53.80
2018-06-30T06:29:25.209Z,54.20
2018-06-30T06:34:29.773Z,53.40
2018-06-30T06:39:33.093Z,53.30
2018-06-30T06:44:48.465Z,53.40
2018-06-30T06:49:52.293Z,53.40
2018-06-30T06:54:56.210Z,53.30
2018-06-30T06:59:59.272Z,54.00
2018-06-30T07:05:02.352Z,52.60
2018-06-30T07:10:05.449Z,49.40
2018-06-30T07:20:30.167Z,43.00
2018-06-30T07:25:33.893Z,43.40
2018-06-30T07:30:37.201Z,43.00
2018-06-30T07:35:43.753Z,44.10
2018-06-30T07:40:47.897Z,44.60
2018-06-30T07:45:51.552Z,44.00
2018-06-30T07:50:54.709Z,43.60
2018-06-30T07:55:57.771Z,40.70
2018-06-30T08:01:01.169Z,39.10
2018-06-30T08:06:04.398Z,38.80
2018-06-30T08:11:08.027Z,38.80
2018-06-30T08:16:12.260Z,39.10
2018-06-30T08:21:15.391Z,36.10
2018-06-30T08:26:20.558Z,37.70
2018-06-30T08:31:24.697Z,38.50
2018-06-30T08:36:28.028Z,38.60
2018-06-30T08:41:31.321Z,35.50
2018-06-30T08:46:35.058Z,36.20
2018-06-30T08:51:38.334Z,36.50
2018-06-30T08:56:48.685Z,36.60
2018-06-30T09:01:52.199Z,37.10
2018-06-30T09:06:58.835Z,35.20
2018-06-30T09:12:02.182Z,35.60
2018-06-30T09:17:11.419Z,35.10
2018-06-30T09:22:14.629Z,33.00
2018-06-30T09:32:20.923Z,32.70
2018-06-30T09:37:24.354Z,32.30
2018-06-30T09:42:27.608Z,30.30
2018-06-30T09:47:32.777Z,30.50
2018-06-30T09:52:36.513Z,31.30
2018-06-30T09:57:40.726Z,30.20
2018-06-30T10:02:44.321Z,30.60
2018-06-30T10:07:48.836Z,30.20
2018-06-30T10:17:58.558Z,31.00
2018-06-30T10:23:06.670Z,30.90
2018-06-30T10:28:12.319Z,30.80
2018-06-30T10:33:31.029Z,30.60
2018-06-30T10:38:40.757Z,30.70
2018-06-30T10:48:48.450Z,31.00
2018-06-30T10:53:59.540Z,30.00
2018-06-30T10:59:05.359Z,29.60
2018-06-30T11:04:08.849Z,30.30
2018-06-30T11:09:12.766Z,30.20
2018-06-30T11:14:16.777Z,30.40
2018-06-30T11:19:19.805Z,31.70
2018-06-30T11:24:22.909Z,31.20
2018-06-30T11:29:26.475Z,29.90
2018-06-30T11:34:29.551Z,30.80
2018-06-30T11:39:39.325Z,30.40
2018-06-30T11:44:42.437Z,30.50
2018-06-30T11:49:45.541Z,30.30
2018-06-30T11:54:49.037Z,31.50
2018-06-30T11:59:52.157Z,30.90
2018-06-30T12:04:57.439Z,30.00
2018-06-30T12:10:00.506Z,29.10
2018-06-30T12:15:03.597Z,30.20
2018-06-30T12:20:06.730Z,30.60
2018-06-30T12:25:09.820Z,30.80
2018-06-30T12:30:13.593Z,29.70
2018-06-30T12:35:16.590Z,29.60
2018-06-30T12:40:40.055Z,29.60
2018-06-30T12:45:45.571Z,29.40
2018-06-30T12:50:48.695Z,29.80
2018-06-30T12:55:51.927Z,28.70
2018-06-30T13:00:55.013Z,29.10
2018-06-30T13:05:58.089Z,28.30
2018-06-30T13:11:01.634Z,28.60
2018-06-30T13:16:04.774Z,28.20
2018-06-30T13:21:08.265Z,29.20
2018-06-30T13:26:12.265Z,29.90
2018-06-30T13:31:15.334Z,29.10
2018-06-30T13:42:05.881Z,29.40
2018-06-30T13:47:09.109Z,29.10
2018-06-30T13:52:12.193Z,29.60
2018-06-30T13:57:15.242Z,29.70
2018-06-30T14:02:18.292Z,30.50
2018-06-30T14:07:21.378Z,29.80
2018-06-30T14:12:24.467Z,30.20
2018-06-30T14:17:28.182Z,30.00
2018-06-30T14:22:31.317Z,29.60
2018-06-30T14:27:35.673Z,29.60
2018-06-30T14:32:39.465Z,29.40
2018-06-30T14:37:43.006Z,29.90
2018-06-30T14:42:46.228Z,29.70
2018-06-30T14:47:50.186Z,30.40
2018-06-30T14:52:53.401Z,30.00
2018-06-30T14:57:59.129Z,30.50
2018-06-30T15:03:02.338Z,29.70
2018-06-30T15:08:05.420Z,30.40
2018-06-30T15:13:12.794Z,30.20
2018-06-30T15:18:16.018Z,30.00
2018-06-30T15:23:19.147Z,30.10
2018-06-30T15:28:24.445Z,30.00
2018-06-30T15:33:29.165Z,30.00
2018-06-30T15:38:32.320Z,30.10
2018-06-30T15:43:35.494Z,30.00
2018-06-30T15:48:38.617Z,29.20
2018-06-30T15:53:44.139Z,29.40
2018-06-30T15:58:47.217Z,29.40
2018-06-30T16:03:51.355Z,29.30
2018-06-30T16:08:54.558Z,28.60
2018-06-30T16:13:57.725Z,28.50
2018-06-30T16:19:00.930Z,28.40
2018-06-30T16:24:04.030Z,28.70
2018-06-30T16:29:07.132Z,29.20
2018-06-30T16:34:10.177Z,29.00
2018-06-30T16:39:13.525Z,28.40
2018-06-30T16:44:16.651Z,28.40
2018-06-30T16:49:20.935Z,29.10
2018-06-30T16:54:24.252Z,28.40
2018-06-30T16:59:27.489Z,28.90
2018-06-30T17:04:30.644Z,28.60
2018-06-30T17:09:33.940Z,28.30
2018-06-30T17:14:37.266Z,28.30
2018-06-30T17:19:41.293Z,27.90
2018-06-30T17:24:44.515Z,28.20
2018-06-30T17:29:47.655Z,28.70
2018-06-30T17:40:16.971Z,28.70
2018-06-30T17:45:20.222Z,28.80
2018-06-30T17:50:23.990Z,28.80
2018-06-30T17:55:27.105Z,29.00
2018-06-30T18:00:30.361Z,29.30
2018-06-30T18:05:35.798Z,28.90
2018-06-30T18:10:40.943Z,29.20
2018-06-30T18:15:45.964Z,29.70
2018-06-30T18:20:49.234Z,29.70
2018-06-30T18:25:54.183Z,29.60
2018-06-30T18:30:58.526Z,29.50
2018-06-30T18:36:01.998Z,29.50
2018-06-30T18:41:08.559Z,29.90
2018-06-30T18:46:11.722Z,30.20
2018-06-30T18:51:14.919Z,30.70
2018-06-30T18:56:33.262Z,30.50
2018-06-30T19:01:36.562Z,30.90
2018-06-30T19:11:44.843Z,31.10
2018-06-30T19:16:48.682Z,30.90
2018-06-30T19:21:51.840Z,31.10
2018-06-30T19:26:55.122Z,31.30
2018-06-30T19:31:58.491Z,31.30
2018-06-30T19:37:01.670Z,31.60
2018-06-30T19:42:04.914Z,32.00
2018-06-30T19:47:08.294Z,32.90
2018-06-30T19:52:11.661Z,32.90
2018-06-30T19:57:15.598Z,33.90
2018-06-30T20:02:18.942Z,33.50
2018-06-30T20:07:22.244Z,33.90
2018-06-30T20:12:25.519Z,34.10
2018-06-30T20:17:31.991Z,34.50
2018-06-30T20:22:35.210Z,34.80
2018-06-30T20:27:38.503Z,35.00
2018-06-30T20:32:44.563Z,35.50
2018-06-30T20:42:58.345Z,36.10
2018-06-30T20:48:01.405Z,35.80
2018-06-30T20:58:34.189Z,36.70
2018-06-30T21:03:37.881Z,37.00
2018-06-30T21:08:40.942Z,37.30
2018-06-30T21:13:43.978Z,37.70
2018-06-30T21:18:49.056Z,37.80
2018-06-30T21:23:52.595Z,38.20
2018-06-30T21:28:56.477Z,38.30
2018-06-30T21:33:59.542Z,38.50
2018-06-30T21:39:03.586Z,38.80
2018-06-30T21:44:06.733Z,38.90
2018-06-30T21:49:09.772Z,39.20
2018-06-30T21:54:12.833Z,39.40
2018-06-30T21:59:15.878Z,39.60
2018-06-30T22:04:18.978Z,39.70
2018-06-30T22:09:22.018Z,39.70
2018-06-30T22:14:25.105Z,39.90
2018-06-30T22:19:28.143Z,40.10
2018-06-30T22:24:31.736Z,40.30
2018-06-30T22:29:34.825Z,40.30
2018-06-30T22:34:37.956Z,40.50
2018-06-30T22:39:52.585Z,40.70
2018-06-30T22:44:56.675Z,40.90
2018-06-30T22:55:03.289Z,41.30
2018-06-30T23:00:08.174Z,41.60
2018-06-30T23:05:22.433Z,41.50
2018-06-30T23:10:25.718Z,41.60
2018-06-30T23:15:28.753Z,41.60
2018-06-30T23:20:49.277Z,42.00
2018-06-30T23:25:52.352Z,42.00
2018-06-30T23:30:55.376Z,42.10
2018-06-30T23:35:58.413Z,42.30
2018-06-30T23:41:01.595Z,42.70
2018-06-30T23:46:04.890Z,42.70
2018-06-30T23:51:07.943Z,43.00
2018-06-30T23:56:11.854Z,43.20
